Weather observations for the past three days for
Warsaw, Warsaw Municipal Airport
Metric (Imperial)
Date Time (edt) Wind (kph) Vis. (km) Weather Sky Cond. Temperature (ºC) Relative Humidity Wind Chill (°C) Heat Index (°C) Pressure Precipitation (cm)
Air Dwpt 6 hour altimeter (cm) sea level (mb) 1 hr 3 hr 6 hr
Max. Min.
04 20:55 SW 11 16.09 Partly Cloudy SCT070 21 10 50% 75.08 0.0
04 20:35 SW 15 16.09 Partly Cloudy SCT070 21.3 11 52% 75.11 0.0
04 20:15 SW 15 G 31 16.09 Fair CLR 21.5 11 51% 75.11 0.0
04 19:55 SW 11 G 26 16.09 Fair CLR 21.6 11 51% 75.11 0.0
04 19:35 SW 19 G 30 16.09 Fair CLR 21.8 11 50% 75.08 0.0
04 19:15 SW 22 G 44 16.09 Fair CLR 21.6 10.5 49% 75.11 0.0
04 18:55 SW 20 G 50 16.09 Partly Cloudy SCT055 22.5 10.2 46% 75.13 0.0
04 18:35 SW 35 G 57 16.09 Partly Cloudy and Breezy SCT065 22.7 9.5 43% 75.13 0.0
04 17:55 SW 28 G 50 16.09 Partly Cloudy SCT100 23.6 9.4 41% 75.16 0.0
04 17:35 SW 37 G 54 16.09 Fair and Breezy CLR 24 9.2 39% 25 75.13 0.0
04 17:15 SW 35 G 56 16.09 Fair and Breezy CLR 24.5 9.4 38% 25 75.13 0.0
04 16:55 SW 37 G 56 16.09 Fair and Breezy CLR 24.4 9.5 39% 25 75.11 0.0
04 16:35 SW 28 G 56 16.09 Partly Cloudy SCT095 24.5 9.3 38% 25 75.13 0.0
04 16:15 SW 28 G 59 11.27 Partly Cloudy SCT027 SCT036 SCT065 23.8 9.5 40% 75.13 0.0
04 15:55 SW 26 G 41 16.09 Mostly Cloudy SCT065 BKN090 24.3 10.3 41% 25 75.13 0.0
04 15:35 SW 24 G 41 16.09 Partly Cloudy SCT060 SCT075 24.2 10 41% 25 75.16 0.0
04 15:15 SW 26 G 37 16.09 Partly Cloudy SCT055 SCT070 24.1 10.9 44% 25 75.18 0.0
04 14:55 SW 24 G 37 16.09 Mostly Cloudy SCT050 BKN065 23.7 10.7 44% 75.21 0.0
04 14:35 SW 24 G 31 16.09 Partly Cloudy SCT050 23.4 10.8 45% 75.21 0.0
04 14:15 SW 19 G 33 16.09 Partly Cloudy SCT050 23.1 10.7 46% 75.23 0.0
04 13:55 SW 24 G 35 16.09 Partly Cloudy SCT080 22.5 10.8 48% 75.23 0.0
04 13:35 SW 15 G 30 16.09 Partly Cloudy SCT080 22.1 10.7 49% 75.26 0.0
04 13:15 SW 17 G 28 16.09 Fair CLR 22 10.3 48% 75.29 0.0
04 12:55 SW 20 G 33 16.09 Fair CLR 21.7 9.4 46% 75.31 0.0
04 12:35 SW 11 G 35 16.09 Fair CLR 21.4 8.6 44% 75.34 0.0
04 12:15 SW 22 G 33 16.09 Fair CLR 21.1 7.7 42% 75.34 0.0
04 11:55 SW 17 G 26 16.09 Fair CLR 20.3 7.9 45% 75.36 0.0
04 11:35 SW 13 16.09 Fair CLR 19.9 8.4 48% 75.39 0.0
04 11:15 SW 13 16.09 Fair CLR 19.5 8.6 50% 75.39 0.0
04 10:55 SW 9 16.09 Fair CLR 18.5 8.4 52% 75.41 0.0
04 10:35 W 13 16.09 Fair CLR 18 8.5 54% 75.41 0.0
04 10:15 W 15 16.09 Fair CLR 17 8.1 56% 75.44 0.0
04 09:55 SW 11 16.09 Fair CLR 16 7.6 58% 75.44 0.0
04 09:35 SW 11 16.09 NULL NULL 15.4 7.6 60% 75.46 0.0
04 09:15 SW 13 16.09 NULL NULL 14.5 7.1 61% 75.46 0.0
04 08:55 SW 11 16.09 Fair CLR 13.7 7 64% 75.46 0.0
04 08:35 SW 11 16.09 Fair CLR 13 6.2 64% 75.49 0.0
04 08:15 SW 6 16.09 Fair CLR 12.6 6.3 66% 75.49 0.0
04 07:55 SW 7 16.09 Fair CLR 12.1 6.1 67% 75.46 0.0
04 07:35 SW 7 16.09 Fair CLR 11.5 5.8 68% 75.49 0.0
04 07:15 SW 7 16.09 Fair CLR 11.2 5.5 68% 75.49 0.0
04 06:55 SW 11 16.09 Fair CLR 11 5.3 68% 75.49 0.0
04 06:35 SW 11 16.09 Fair CLR 11 5.2 68% 75.46 0.0
04 06:15 SW 11 16.09 Fair CLR 10.9 5 67% 75.46 0.0
04 05:55 SW 11 16.09 Fair CLR 10.9 5 67% 75.46 0.0
04 05:35 SW 9 16.09 Fair CLR 10.8 5 68% 75.49 0.0
04 05:15 SW 7 16.09 Fair CLR 10.9 5 67% 75.46 0.0
04 04:55 SW 7 16.09 Fair CLR 11.1 5 66% 75.46 0.0
04 04:35 SW 9 16.09 Fair CLR 11.1 5 66% 75.49 0.0
04 04:15 S 7 16.09 Fair CLR 11 5 67% 75.49 0.0
04 03:55 SW 7 16.09 Fair CLR 11.1 5 66% 75.51 0.0
04 03:35 SW 6 16.09 Fair CLR 11 5 67% 75.51 0.0
04 03:15 SW 6 16.09 Fair CLR 11 5 67% 75.54 0.0
04 02:55 SW 7 16.09 Fair CLR 10.8 5 68% 75.57 0.0
04 02:35 SW 7 16.09 Fair CLR 10.7 5 68% 75.59 0.0
04 02:15 SW 7 16.09 Fair CLR 10.8 5 68% 75.59 0.0
04 01:55 SW 7 16.09 Fair CLR 10.7 5.1 69% 75.62 0.0
04 01:35 SW 7 16.09 Fair CLR 10.5 5.1 70% 75.62 0.0
04 01:15 SW 7 16.09 Fair CLR 10.3 5.1 70% 75.67 0.0
04 00:55 S 6 16.09 Fair CLR 10.1 5 71% 75.67 0.0
04 00:35 SW 6 16.09 Fair CLR 10.4 5.1 70% 75.67 0.0
04 00:15 S 7 16.09 Fair CLR 10.4 5.1 70% 75.67 0.0
03 23:55 S 6 16.09 Fair CLR 10.2 5.2 71% 75.69 0.0
03 23:35 S 7 16.09 Fair CLR 10.1 5.5 73% 75.69 0.0
03 23:15 S 7 16.09 Fair CLR 10 5.6 74% 9 75.72 0.0
03 22:55 S 7 16.09 Fair CLR 9.8 5.8 76% 9 75.72 0.0
03 22:35 S 6 16.09 Fair CLR 9.7 5.7 76% 75.72 0.0
03 22:15 S 7 16.09 Fair CLR 9.6 5.7 77% 9 75.72 0.0
03 21:55 S 6 16.09 Fair CLR 9.7 5.7 76% 75.72 0.0
03 21:35 S 6 16.09 Fair CLR 9.7 5.8 77% 75.72 0.0
03 21:15 S 7 16.09 Fair CLR 10 6 76% 9 75.72 0.0
03 20:55 S 6 16.09 Fair CLR 10.1 6 76% 75.72 0.0
03 20:35 S 6 16.09 Fair CLR 10.5 6.1 74% 75.72 0.0
03 20:15 S 9 16.09 Mostly Cloudy SCT100 BKN120 11 6 72% 75.72 0.0
03 19:55 S 9 16.09 Mostly Cloudy BKN100 11.3 6 70% 75.74 0.0
03 19:35 S 11 16.09 Partly Cloudy SCT075 SCT110 10.8 5.7 71% 75.77 0.0
03 19:15 S 7 16.09 Partly Cloudy SCT075 SCT110 11.1 5.7 70% 75.79 0.0
03 18:55 S 9 16.09 Partly Cloudy SCT110 10.9 5.5 70% 75.82 0.0
03 18:35 S 15 16.09 Mostly Cloudy BKN100 11.2 5.6 69% 75.82 0.0
03 18:15 S 13 16.09 Overcast OVC090 10.8 5.7 71% 75.84 0.0
03 17:55 S 7 16.09 Overcast OVC090 9.9 5.5 74% 9 75.84 0.0
03 17:35 S 9 16.09 Overcast OVC090 9.2 5.2 76% 8 75.84 0.0
03 17:15 S 11 16.09 Overcast OVC080 9 5.1 77% 8 75.87 0.0
03 16:55 S 11 16.09 Light Rain SCT060 OVC070 8.8 5.1 78% 7 75.9 0.0
03 16:35 S 9 16.09 Overcast SCT050 BKN060 OVC075 9 5.4 78% 8 75.95 0.0
03 16:15 S 13 16.09 Drizzle BKN049 OVC060 9.1 5.1 76% 7 76 0.0
03 15:55 SW 20 G 37 16.09 Rain BKN047 OVC060 9.6 4.9 73% 7 76.07 0.0
03 15:35 W 31 G 56 16.09 Light Rain SCT050 BKN055 BKN065 10.8 4.2 64% 76.07 0.0
03 15:15 W 35 G 56 16.09 Partly Cloudy and Breezy SCT050 SCT065 12.6 3 52% 76.05 0.0
03 14:55 W 35 G 46 16.09 Overcast and Breezy BKN050 BKN070 OVC100 14.1 2.5 46% 76.02 0.0
03 14:35 W 31 G 54 16.09 Mostly Cloudy BKN110 14.9 2.3 43% 76 0.0
03 14:15 SW 24 G 39 16.09 Mostly Cloudy BKN110 15 1.4 40% 76.02 0.0
03 13:55 SW 26 G 43 16.09 Fair CLR 15 1.3 40% 76.05 0.0
03 13:35 SW 33 G 43 16.09 Fair and Breezy CLR 14.8 1.7 41% 76.07 0.0
03 13:15 SW 28 G 41 16.09 Fair CLR 14.6 1.6 42% 76.1 0.0
03 12:55 W 30 G 37 16.09 Fair CLR 14.5 1.4 41% 76.12 0.0
03 12:35 SW 28 G 39 16.09 Fair CLR 14.4 0.9 40% 76.12 0.0
03 12:15 SW 20 G 37 16.09 Fair CLR 13.6 1 43% 76.15 0.0
03 11:55 SW 22 G 31 16.09 Fair CLR 14 0.8 41% 76.17 0.0
03 11:35 SW 28 G 43 16.09 Fair CLR 13.3 0.6 42% 76.17 0.0
03 11:15 SW 22 G 37 16.09 Fair CLR 13 0.9 44% 76.2 0.0
03 10:55 SW 24 G 37 16.09 Fair CLR 12.3 0.4 44% 76.2 0.0
03 10:35 SW 24 G 35 16.09 Fair CLR 11.9 0 44% 76.23 0.0
03 10:15 SW 22 G 35 16.09 Fair CLR 12 0.2 45% 76.23 0.0
03 09:55 SW 24 G 39 16.09 Partly Cloudy SCT090 11.3 -0.2 45% 76.23 0.0
03 09:35 SW 19 G 26 16.09 Partly Cloudy SCT090 10.9 -0.1 47% 76.23 0.0
03 09:15 W 24 G 33 16.09 Fair CLR 10 -0.4 49% 7 76.23 0.0
03 08:55 W 30 G 39 16.09 Fair CLR 9.2 -1 49% 6 76.23 0.0
03 08:35 SW 19 G 26 16.09 Fair CLR 8.8 -0.7 52% 6 76.23 0.0
03 08:15 SW 15 G 30 16.09 Fair CLR 7.9 -1.6 51% 6 76.23 0.0
03 07:55 W 15 16.09 Fair CLR 7 -1.7 54% 5 76.23 0.0
03 07:35 SW 13 16.09 Fair CLR 6.3 -1.7 57% 4 76.23 0.0
03 07:15 SW 13 16.09 Fair CLR 5.9 -2 57% 3 76.2 0.0
03 06:55 SW 13 16.09 Fair CLR 5.5 -2 59% 3 76.2 0.0
03 06:35 SW 11 16.09 Fair CLR 5.5 -2 59% 3 76.2 0.0
03 06:15 SW 13 16.09 Fair CLR 5.7 -2.1 58% 3 76.2 0.0
03 05:55 SW 11 16.09 Fair CLR 5.8 -2.1 57% 4 76.2 0.0
03 05:35 SW 13 16.09 Fair CLR 5.9 -2.2 56% 3 76.2 0.0
03 05:15 SW 13 16.09 Fair CLR 6.2 -2.3 55% 4 76.2 0.0
03 04:55 SW 13 16.09 Fair CLR 6 -2.2 56% 4 76.23 0.0
03 04:35 SW 11 16.09 Fair CLR 5.6 -2.1 58% 3 76.2 0.0
03 04:15 SW 13 16.09 Fair CLR 5.7 -2.2 57% 3 76.23 0.0
03 03:55 SW 13 16.09 Fair CLR 5.6 -2.3 57% 3 76.23 0.0
03 03:35 SW 9 16.09 Fair CLR 5.4 -2.4 58% 4 76.23 0.0
03 03:15 Calm 16.09 Fair CLR 5.1 -2.5 58% 76.23 0.0
03 02:55 Calm 16.09 Fair CLR 4.7 -2.6 60% 76.25 0.0
03 02:35 Calm 16.09 Partly Cloudy SCT085 4.4 -2.5 61% 76.25 0.0
03 02:15 Calm 16.09 Partly Cloudy SCT085 4.4 -2.2 63% 76.28 0.0
03 01:55 Calm 16.09 Partly Cloudy SCT085 4.3 -2.4 62% 76.3 0.0
03 01:35 Calm 16.09 Fair CLR 4.6 -2.4 61% 76.3 0.0
03 00:50 Calm 16.09 Fair CLR 2.9 -0.8 77% 76.3 0.0
03 00:35 Calm 16.09 Fair CLR 3.2 -1.3 73% 76.3 0.0
03 00:15 Calm 16.09 Fair CLR 3.4 -1 73% 76.33 0.0
02 23:55 Calm 16.09 Fair CLR 2.9 -0.6 78% 76.33 0.0
02 23:35 Calm 16.09 Fair CLR 2.5 -0.5 81% 76.33 0.0
02 23:15 Calm 16.09 Fair CLR 3.2 -0.5 77% 76.33 0.0
02 22:55 Calm 16.09 Fair CLR 3.7 -1 72% 76.33 0.0
02 22:35 Calm 16.09 Fair CLR 3.8 -0.4 74% 76.33 0.0
02 22:15 Calm 16.09 Fair CLR 4 -0.1 75% 76.33 0.0
02 21:55 Calm 16.09 Fair CLR 4.6 -1.5 65% 76.33 0.0
02 21:35 Calm 16.09 Fair CLR 5.3 -3.2 55% 76.33 0.0
02 21:15 Calm 16.09 Fair CLR 5.7 -2.5 56% 76.33 0.0
02 20:55 Calm 16.09 Fair CLR 7.1 -4.5 44% 76.33 0.0
02 20:35 NW 6 16.09 Fair CLR 8.2 -5.3 38% 76.33 0.0
02 20:15 NW 7 16.09 Fair CLR 8.5 -5 38% 8 76.33 0.0
02 19:55 NW 7 16.09 Fair CLR 9 -5.8 35% 8 76.3 0.0
02 19:35 NW 17 16.09 Fair CLR 9.5 -5.5 35% 7 76.3 0.0
02 19:15 NW 19 G 28 16.09 Fair CLR 9.7 -5.3 35% 7 76.33 0.0
02 18:55 N 17 16.09 Fair CLR 10 -5.4 34% 8 76.33 0.0
02 18:35 NW 19 16.09 Fair CLR 10.2 -5.2 34% 76.33 0.0
02 18:15 NW 20 16.09 Fair CLR 10.1 -5.9 32% 76.33 0.0
02 17:55 NW 17 G 28 16.09 Fair CLR 10.3 -5.5 33% 76.33 0.0
02 17:35 NW 20 16.09 Fair CLR 10 -6.7 30% 8 76.33 0.0
02 17:15 NW 17 G 33 16.09 Fair CLR 10.4 -4 36% 76.33 0.0
02 16:55 NW 9 G 30 16.09 Partly Cloudy SCT065 10.2 -5 34% 76.33 0.0
02 16:35 NW 9 G 31 16.09 Partly Cloudy SCT065 10.1 -4.3 36% 76.35 0.0
02 16:15 NW 19 16.09 Mostly Cloudy BKN065 11 -3.2 37% 76.35 0.0
02 15:55 NW 15 G 35 16.09 Mostly Cloudy BKN065 10.7 -3.5 37% 76.38 0.0
02 15:35 NW 20 G 26 16.09 Mostly Cloudy BKN065 10.1 -3.4 39% 76.38 0.0
02 15:15 NW 20 G 35 16.09 Overcast OVC065 9.6 -3.9 39% 7 76.38 0.0
02 14:55 N 15 16.09 Mostly Cloudy BKN065 8.7 -3.7 42% 7 76.4 0.0
02 14:35 NW 19 G 26 16.09 Overcast OVC065 9.4 -3 42% 7 76.4 0.0
02 14:15 N 9 G 26 16.09 Overcast SCT050 OVC065 9 -2.9 43% 8 76.43 0.0
02 13:55 NW 17 16.09 Overcast SCT050 OVC065 8.4 -3.1 45% 6 76.43 0.0
02 13:35 NW 9 16.09 Mostly Cloudy SCT050 BKN065 8.1 -3.7 43% 7 76.45 0.0
02 13:15 NW 17 16.09 Overcast SCT050 OVC065 8.1 -3.4 44% 6 76.48 0.0
02 12:55 N 15 16.09 Mostly Cloudy SCT055 BKN065 8.3 -2.8 46% 6 76.48 0.0
02 12:35 NW 11 16.09 Overcast SCT046 OVC055 7.1 -3.8 46% 5 76.48 0.0
02 12:15 NW 9 16.09 Overcast SCT046 OVC055 6.9 -3 50% 5 76.5 0.0
02 11:55 N 15 16.09 Mostly Cloudy SCT042 SCT047 BKN055 6.8 -3.3 49% 4 76.5 0.0
02 11:35 NW 13 16.09 Overcast BKN042 OVC048 6.1 -3.1 52% 4 76.5 0.0
02 11:15 NW 11 G 17 16.09 Overcast BKN040 OVC050 6.8 -2.5 52% 5 76.5 0.0
02 10:55 N 13 16.09 Mostly Cloudy SCT038 BKN050 7.1 -1.9 53% 5 76.48 0.0
02 10:35 N 17 16.09 Partly Cloudy SCT031 SCT037 5.4 -2.3 58% 2 76.48 0.0
02 10:15 N 15 16.09 Mostly Cloudy SCT030 BKN038 5.9 -1.7 59% 3 76.48 0.0
02 09:55 N 11 16.09 Fair CLR 5.4 -0.9 64% 3 76.48 0.0
02 09:35 N 13 16.09 Partly Cloudy SCT019 4.8 -0.6 68% 2 76.48 0.0
02 09:15 N 17 16.09 Partly Cloudy SCT019 4.5 0 73% 1 76.45 0.0
02 08:55 N 15 16.09 Fair CLR 3.8 -0.3 75% 1 76.45 0.0
02 08:35 N 9 16.09 Fair CLR 3.6 -0.3 76% 1 76.45 0.0
02 08:15 N 11 16.09 Fair CLR 2.7 -1 77% 0 76.45 0.0
02 07:55 NW 7 16.09 Fair CLR 1.9 -2 76% 0 76.45 0.0
02 07:35 NW 6 16.09 Fair CLR 1 -2.5 78% 76.43 0.0
02 07:15 NW 6 16.09 Fair CLR 0.7 -2.9 77% 76.43 0.0
02 06:55 NW 7 16.09 Fair CLR 0.6 -3 77% -1 76.43 0.0
02 06:35 NW 7 16.09 Fair CLR 0.6 -3.2 76% -1 76.43 0.0
02 06:15 NW 7 16.09 Fair CLR 0.6 -3.1 77% -1 76.4 0.0
02 05:55 NW 9 16.09 Fair CLR 0 -3.1 80% -3 76.4 0.0
02 05:35 NW 7 16.09 Fair CLR 0 -3.1 80% -2 76.4 0.0
02 05:15 NW 9 16.09 Fair CLR 0.1 -3.2 79% -3 76.4 0.0
02 04:55 NW 9 16.09 Fair CLR 0.2 -3.3 78% -3 76.4 0.0
02 04:35 NW 9 16.09 Fair CLR 0 -3.5 78% -3 76.4 0.0
02 04:15 NW 9 16.09 Fair CLR -0.1 -3.6 78% -3 76.4 0.0
02 03:55 NW 6 16.09 Fair CLR 0.3 -3.5 76% 76.38 0.0
02 03:35 Calm 16.09 Fair CLR 0.5 -3.5 75% 76.38 0.0
02 03:15 Calm 16.09 Fair CLR -0.4 -3.6 79% 76.4 0.0
02 02:35 NW 6 16.09 Fair CLR 0.5 -3.7 74% 76.4 0.0
02 02:15 NW 6 16.09 Fair CLR 0.2 -3.6 76% 76.43 0.0
02 01:55 NW 7 16.09 Fair CLR 1 -3.6 72% -1 76.43 0.0
02 01:35 NW 7 16.09 Fair CLR 0.5 -3.4 75% -2 76.43 0.0
02 01:15 NW 7 16.09 Fair CLR 0.6 -3.1 77% -1 76.43 0.0
02 00:55 NW 7 16.09 Fair CLR 1.5 -3.3 71% -0 76.45 0.0
02 00:35 NW 9 16.09 Fair CLR 2.5 -3.5 65% 0 76.45 0.0
02 00:15 NW 9 16.09 Partly Cloudy SCT070 2.4 -3.2 67% 0 76.43 0.0
01 23:55 NW 9 16.09 Mostly Cloudy BKN070 2.6 -3 67% 0 76.43 0.0
01 23:35 NW 7 16.09 Fair CLR 2.2 -2.7 70% 0 76.4 0.0
01 23:15 NW 6 16.09 Fair CLR 2.9 -2.7 67% 76.4 0.0
01 22:55 NW 7 16.09 Partly Cloudy SCT070 3.5 -2.6 65% 2 76.38 0.0
01 22:35 N 6 16.09 Partly Cloudy SCT070 4 -2.5 63% 76.38 0.0
01 22:15 N 11 16.09 Mostly Cloudy BKN070 4.6 -2.4 61% 2 76.38 0.0
01 21:55 N 9 16.09 Partly Cloudy SCT070 4.7 -2.5 60% 3 76.35 0.0
01 21:35 N 9 16.09 Fair CLR 5 -2.5 59% 3 76.35 0.0
01 21:15 N 13 16.09 Fair CLR 5.4 -2.6 57% 3 76.33 0.0
Date Time (edt) Wind (kph) Vis. (km) Weather Sky Cond. Air Dwpt Max. Min. Relative Humidity Wind Chill (°C) Heat Index (°C) altimeter (cm) sea level (mb) 1 hr 3 hr 6 hr
6 hour
Temperature (ºC) Pressure Precipitation (cm)